sensor_id;sensor_type;location;lat;lon;timestamp;pressure;altitude;pressure_sealevel;temperature;humidity
61119;BME280;51448;51.660;5.824;2022-10-16T00:01:37;100902.16;;;12.64;100.00
61119;BME280;51448;51.660;5.824;2022-10-16T00:04:05;100903.03;;;12.65;100.00
61119;BME280;51448;51.660;5.824;2022-10-16T00:06:33;100910.03;;;12.66;100.00
61119;BME280;51448;51.660;5.824;2022-10-16T00:09:00;100905.63;;;12.66;100.00
61119;BME280;51448;51.660;5.824;2022-10-16T00:11:31;100905.56;;;12.68;100.00
61119;BME280;51448;51.660;5.824;2022-10-16T00:14:03;100902.94;;;12.68;100.00
61119;BME280;51448;51.660;5.824;2022-10-16T00:16:32;100894.22;;;12.66;100.00
61119;BME280;51448;51.660;5.824;2022-10-16T00:19:02;100890.63;;;12.67;100.00
61119;BME280;51448;51.660;5.824;2022-10-16T00:21:31;100899.31;;;12.71;100.00
61119;BME280;51448;51.660;5.824;2022-10-16T00:24:05;100898.34;;;12.73;100.00
61119;BME280;51448;51.660;5.824;2022-10-16T00:26:37;100901.91;;;12.72;100.00
61119;BME280;51448;51.660;5.824;2022-10-16T00:29:06;100906.31;;;12.72;100.00
61119;BME280;51448;51.660;5.824;2022-10-16T00:31:34;100904.53;;;12.72;100.00
61119;BME280;51448;51.660;5.824;2022-10-16T00:34:03;100905.44;;;12.71;100.00
61119;BME280;51448;51.660;5.824;2022-10-16T00:36:30;100913.34;;;12.71;100.00
61119;BME280;51448;51.660;5.824;2022-10-16T00:38:59;100901.94;;;12.71;100.00
61119;BME280;51448;51.660;5.824;2022-10-16T00:41:29;100901.09;;;12.70;100.00
61119;BME280;51448;51.660;5.824;2022-10-16T00:43:58;100901.09;;;12.70;100.00
61119;BME280;51448;51.660;5.824;2022-10-16T00:49:15;100902.06;;;12.67;100.00
61119;BME280;51448;51.660;5.824;2022-10-16T00:51:48;100902.06;;;12.67;100.00
61119;BME280;51448;51.660;5.824;2022-10-16T00:54:21;100902.94;;;12.68;100.00
61119;BME280;51448;51.660;5.824;2022-10-16T00:56:52;100902.06;;;12.67;100.00
61119;BME280;51448;51.660;5.824;2022-10-16T00:59:27;100907.34;;;12.67;100.00
61119;BME280;51448;51.660;5.824;2022-10-16T01:01:58;100906.47;;;12.67;100.00
61119;BME280;51448;51.660;5.824;2022-10-16T01:04:31;100909.09;;;12.67;100.00
61119;BME280;51448;51.660;5.824;2022-10-16T01:07:30;100908.25;;;12.66;100.00
61119;BME280;51448;51.660;5.824;2022-10-16T01:10:14;100903.84;;;12.67;100.00
61119;BME280;51448;51.660;5.824;2022-10-16T01:13:06;100904.75;;;12.66;100.00
61119;BME280;51448;51.660;5.824;2022-10-16T01:15:47;100893.28;;;12.67;100.00
61119;BME280;51448;51.660;5.824;2022-10-16T01:18:34;100892.41;;;12.66;100.00
61119;BME280;51448;51.660;5.824;2022-10-16T01:21:26;100896.72;;;12.69;100.00
61119;BME280;51448;51.660;5.824;2022-10-16T01:24:14;100892.38;;;12.68;100.00
61119;BME280;51448;51.660;5.824;2022-10-16T01:27:09;100888.00;;;12.67;100.00
61119;BME280;51448;51.660;5.824;2022-10-16T01:32:46;100896.72;;;12.69;100.00
61119;BME280;51448;51.660;5.824;2022-10-16T01:35:26;100901.09;;;12.70;100.00
61119;BME280;51448;51.660;5.824;2022-10-16T01:38:24;100904.59;;;12.71;100.00
61119;BME280;51448;51.660;5.824;2022-10-16T01:41:07;100897.59;;;12.70;100.00
61119;BME280;51448;51.660;5.824;2022-10-16T01:43:42;100905.44;;;12.71;100.00
61119;BME280;51448;51.660;5.824;2022-10-16T01:46:18;100898.34;;;12.73;100.00
61119;BME280;51448;51.660;5.824;2022-10-16T01:48:48;100900.03;;;12.76;100.00
61119;BME280;51448;51.660;5.824;2022-10-16T01:51:19;100899.94;;;12.77;100.00
61119;BME280;51448;51.660;5.824;2022-10-16T01:53:52;100904.31;;;12.78;100.00
61119;BME280;51448;51.660;5.824;2022-10-16T01:56:23;100907.78;;;12.80;100.00
61119;BME280;51448;51.660;5.824;2022-10-16T01:58:59;100909.47;;;12.81;100.00
61119;BME280;51448;51.660;5.824;2022-10-16T02:01:32;100902.44;;;12.82;100.00
61119;BME280;51448;51.660;5.824;2022-10-16T02:04:09;100908.53;;;12.84;100.00
61119;BME280;51448;51.660;5.824;2022-10-16T02:06:41;100912.03;;;12.84;100.00
61119;BME280;51448;51.660;5.824;2022-10-16T02:09:09;100907.53;;;12.86;100.00
61119;BME280;51448;51.660;5.824;2022-10-16T02:11:37;100912.69;;;12.89;100.00
61119;BME280;51448;51.660;5.824;2022-10-16T02:14:06;100911.78;;;12.91;100.00
61119;BME280;51448;51.660;5.824;2022-10-16T02:16:40;100913.41;;;12.95;100.00
61119;BME280;51448;51.660;5.824;2022-10-16T02:19:15;100919.50;;;12.97;100.00
61119;BME280;51448;51.660;5.824;2022-10-16T02:21:56;100926.44;;;12.99;100.00
61119;BME280;51448;51.660;5.824;2022-10-16T02:25:17;100919.31;;;13.01;100.00
61119;BME280;51448;51.660;5.824;2022-10-16T02:27:53;100917.53;;;13.02;100.00
61119;BME280;51448;51.660;5.824;2022-10-16T02:30:36;100906.06;;;13.03;100.00
61119;BME280;51448;51.660;5.824;2022-10-16T02:33:16;100904.31;;;13.02;100.00
61119;BME280;51448;51.660;5.824;2022-10-16T02:35:47;100904.31;;;13.02;100.00
61119;BME280;51448;51.660;5.824;2022-10-16T02:38:17;100906.28;;;12.97;100.00
61119;BME280;51448;51.660;5.824;2022-10-16T02:40:47;100907.19;;;12.96;100.00
61119;BME280;51448;51.660;5.824;2022-10-16T02:43:15;100908.06;;;12.96;100.00
61119;BME280;51448;51.660;5.824;2022-10-16T02:45:43;100905.50;;;12.95;100.00
61119;BME280;51448;51.660;5.824;2022-10-16T02:48:11;100903.75;;;12.94;100.00
61119;BME280;51448;51.660;5.824;2022-10-16T02:50:38;100912.59;;;12.93;100.00
61119;BME280;51448;51.660;5.824;2022-10-16T02:53:05;100916.13;;;12.92;100.00
61119;BME280;51448;51.660;5.824;2022-10-16T02:55:33;100914.47;;;12.89;100.00
61119;BME280;51448;51.660;5.824;2022-10-16T02:58:00;100914.47;;;12.89;100.00
61119;BME280;51448;51.660;5.824;2022-10-16T03:00:27;100906.63;;;12.87;100.00
61119;BME280;51448;51.660;5.824;2022-10-16T03:02:55;100901.47;;;12.84;100.00
61119;BME280;51448;51.660;5.824;2022-10-16T03:05:23;100891.00;;;12.81;100.00
61119;BME280;51448;51.660;5.824;2022-10-16T03:07:50;100897.22;;;12.80;100.00
61119;BME280;51448;51.660;5.824;2022-10-16T03:10:19;100897.31;;;12.77;100.00
61119;BME280;51448;51.660;5.824;2022-10-16T03:12:47;100906.16;;;12.76;100.00
61119;BME280;51448;51.660;5.824;2022-10-16T03:15:14;100915.84;;;12.76;100.00
61119;BME280;51448;51.660;5.824;2022-10-16T03:17:42;100916.81;;;12.73;100.00
61119;BME280;51448;51.660;5.824;2022-10-16T03:20:10;100922.09;;;12.73;100.00
61119;BME280;51448;51.660;5.824;2022-10-16T03:22:37;100928.28;;;12.72;100.00
61119;BME280;51448;51.660;5.824;2022-10-16T03:25:05;100926.63;;;12.70;100.00
61119;BME280;51448;51.660;5.824;2022-10-16T03:27:33;100924.91;;;12.68;100.00
61119;BME280;51448;51.660;5.824;2022-10-16T03:30:00;100931.09;;;12.67;100.00
61119;BME280;51448;51.660;5.824;2022-10-16T03:32:27;100938.13;;;12.67;100.00
61119;BME280;51448;51.660;5.824;2022-10-16T03:34:55;100942.56;;;12.66;100.00
61119;BME280;51448;51.660;5.824;2022-10-16T03:37:24;100942.59;;;12.65;100.00
61119;BME280;51448;51.660;5.824;2022-10-16T03:39:52;100948.84;;;12.62;100.00
61119;BME280;51448;51.660;5.824;2022-10-16T03:42:19;100947.06;;;12.63;100.00
61119;BME280;51448;51.660;5.824;2022-10-16T03:44:47;100953.28;;;12.62;100.00
61119;BME280;51448;51.660;5.824;2022-10-16T03:47:14;100949.78;;;12.61;100.00
61119;BME280;51448;51.660;5.824;2022-10-16T03:49:42;100947.19;;;12.60;100.00
61119;BME280;51448;51.660;5.824;2022-10-16T03:52:09;100942.00;;;12.57;100.00
61119;BME280;51448;51.660;5.824;2022-10-16T03:54:37;100947.28;;;12.57;100.00
61119;BME280;51448;51.660;5.824;2022-10-16T03:57:04;100957.03;;;12.55;100.00
61119;BME280;51448;51.660;5.824;2022-10-16T03:59:32;100957.09;;;12.53;100.00
61119;BME280;51448;51.660;5.824;2022-10-16T04:01:59;100954.50;;;12.52;100.00
61119;BME280;51448;51.660;5.824;2022-10-16T04:04:27;100954.50;;;12.52;100.00
61119;BME280;51448;51.660;5.824;2022-10-16T04:06:54;100958.97;;;12.50;100.00
61119;BME280;51448;51.660;5.824;2022-10-16T04:09:21;100958.16;;;12.47;100.00
61119;BME280;51448;51.660;5.824;2022-10-16T04:11:49;100952.88;;;12.47;100.00
61119;BME280;51448;51.660;5.824;2022-10-16T04:14:16;100963.50;;;12.46;100.00
61119;BME280;51448;51.660;5.824;2022-10-16T04:16:44;100954.72;;;12.45;100.00
61119;BME280;51448;51.660;5.824;2022-10-16T04:19:11;100965.28;;;12.45;100.00
61119;BME280;51448;51.660;5.824;2022-10-16T04:21:39;100965.28;;;12.45;100.00
61119;BME280;51448;51.660;5.824;2022-10-16T04:24:06;100974.09;;;12.44;100.00
61119;BME280;51448;51.660;5.824;2022-10-16T04:26:33;100960.88;;;12.44;100.00
61119;BME280;51448;51.660;5.824;2022-10-16T04:29:01;100968.88;;;12.43;100.00
61119;BME280;51448;51.660;5.824;2022-10-16T04:31:29;100965.31;;;12.44;100.00
61119;BME280;51448;51.660;5.824;2022-10-16T04:33:56;100973.22;;;12.44;100.00
61119;BME280;51448;51.660;5.824;2022-10-16T04:36:23;100981.09;;;12.45;100.00
61119;BME280;51448;51.660;5.824;2022-10-16T04:38:55;100979.31;;;12.46;100.00
61119;BME280;51448;51.660;5.824;2022-10-16T04:41:22;100977.59;;;12.45;100.00
61119;BME280;51448;51.660;5.824;2022-10-16T04:43:50;100973.19;;;12.45;100.00
61119;BME280;51448;51.660;5.824;2022-10-16T04:46:17;100982.81;;;12.46;100.00
61119;BME280;51448;51.660;5.824;2022-10-16T04:48:44;100988.97;;;12.47;100.00
61119;BME280;51448;51.660;5.824;2022-10-16T04:51:13;100982.81;;;12.46;100.00
61119;BME280;51448;51.660;5.824;2022-10-16T04:53:41;100977.53;;;12.46;100.00
61119;BME280;51448;51.660;5.824;2022-10-16T04:56:08;100987.19;;;12.47;100.00
61119;BME280;51448;51.660;5.824;2022-10-16T04:58:35;100995.09;;;12.47;100.00
61119;BME280;51448;51.660;5.824;2022-10-16T05:01:03;100996.88;;;12.47;100.00
61119;BME280;51448;51.660;5.824;2022-10-16T05:03:31;100999.53;;;12.47;100.00
61119;BME280;51448;51.660;5.824;2022-10-16T05:05:58;100999.53;;;12.47;100.00
61119;BME280;51448;51.660;5.824;2022-10-16T05:08:25;101003.00;;;12.47;100.00
61119;BME280;51448;51.660;5.824;2022-10-16T05:10:53;100999.53;;;12.47;100.00
61119;BME280;51448;51.660;5.824;2022-10-16T05:13:20;101003.06;;;12.46;100.00
61119;BME280;51448;51.660;5.824;2022-10-16T05:15:48;101003.09;;;12.44;100.00
61119;BME280;51448;51.660;5.824;2022-10-16T05:18:16;101001.34;;;12.45;100.00
61119;BME280;51448;51.660;5.824;2022-10-16T05:20:43;101011.00;;;12.44;100.00
61119;BME280;51448;51.660;5.824;2022-10-16T05:23:11;101015.38;;;12.45;100.00
61119;BME280;51448;51.660;5.824;2022-10-16T05:25:39;101015.44;;;12.44;100.00
61119;BME280;51448;51.660;5.824;2022-10-16T05:28:07;101024.19;;;12.44;100.00
61119;BME280;51448;51.660;5.824;2022-10-16T05:30:37;101025.13;;;12.43;100.00
61119;BME280;51448;51.660;5.824;2022-10-16T05:33:04;101033.94;;;12.42;100.00
61119;BME280;51448;51.660;5.824;2022-10-16T05:35:32;101038.38;;;12.42;100.00
61119;BME280;51448;51.660;5.824;2022-10-16T05:38:00;101043.63;;;12.42;100.00
61119;BME280;51448;51.660;5.824;2022-10-16T05:40:28;101045.41;;;12.41;100.00
61119;BME280;51448;51.660;5.824;2022-10-16T05:42:55;101044.56;;;12.41;100.00
61119;BME280;51448;51.660;5.824;2022-10-16T05:45:23;101050.69;;;12.41;100.00
61119;BME280;51448;51.660;5.824;2022-10-16T05:47:50;101050.75;;;12.40;100.00
61119;BME280;51448;51.660;5.824;2022-10-16T05:50:18;101067.41;;;12.40;100.00
61119;BME280;51448;51.660;5.824;2022-10-16T05:52:45;101065.72;;;12.39;100.00
61119;BME280;51448;51.660;5.824;2022-10-16T05:55:13;101074.47;;;12.40;100.00
61119;BME280;51448;51.660;5.824;2022-10-16T05:57:40;101084.16;;;12.39;100.00
61119;BME280;51448;51.660;5.824;2022-10-16T06:00:08;101092.09;;;12.39;100.00
61119;BME280;51448;51.660;5.824;2022-10-16T06:02:39;101106.16;;;12.38;100.00
61119;BME280;51448;51.660;5.824;2022-10-16T06:05:06;101100.91;;;12.38;100.00
61119;BME280;51448;51.660;5.824;2022-10-16T06:07:35;101112.38;;;12.37;100.00
61119;BME280;51448;51.660;5.824;2022-10-16T06:10:03;101105.34;;;12.36;100.00
61119;BME280;51448;51.660;5.824;2022-10-16T06:12:31;101120.31;;;12.36;100.00
61119;BME280;51448;51.660;5.824;2022-10-16T06:14:59;101126.44;;;12.36;100.00
61119;BME280;51448;51.660;5.824;2022-10-16T06:17:26;101128.25;;;12.36;100.00
61119;BME280;51448;51.660;5.824;2022-10-16T06:19:54;101125.63;;;12.34;100.00
61119;BME280;51448;51.660;5.824;2022-10-16T06:22:21;101132.69;;;12.34;100.00
61119;BME280;51448;51.660;5.824;2022-10-16T06:24:49;101135.34;;;12.34;100.00
61119;BME280;51448;51.660;5.824;2022-10-16T06:27:16;101134.47;;;12.33;100.00
61119;BME280;51448;51.660;5.824;2022-10-16T06:29:44;101146.75;;;12.34;100.00
61119;BME280;51448;51.660;5.824;2022-10-16T06:32:12;101140.59;;;12.34;100.00
61119;BME280;51448;51.660;5.824;2022-10-16T06:34:39;101149.44;;;12.33;100.00
61119;BME280;51448;51.660;5.824;2022-10-16T06:37:10;101140.72;;;12.31;100.00
61119;BME280;51448;51.660;5.824;2022-10-16T06:39:37;101146.84;;;12.31;100.00
61119;BME280;51448;51.660;5.824;2022-10-16T06:42:05;101150.34;;;12.32;100.00
61119;BME280;51448;51.660;5.824;2022-10-16T06:44:35;101158.25;;;12.32;100.00
61119;BME280;51448;51.660;5.824;2022-10-16T06:47:03;101158.22;;;12.33;100.00
61119;BME280;51448;51.660;5.824;2022-10-16T06:49:30;101166.94;;;12.35;100.00
61119;BME280;51448;51.660;5.824;2022-10-16T06:51:58;101175.69;;;12.37;100.00
61119;BME280;51448;51.660;5.824;2022-10-16T06:54:25;101173.81;;;12.41;100.00
61119;BME280;51448;51.660;5.824;2022-10-16T06:56:53;101177.19;;;12.44;100.00
61119;BME280;51448;51.660;5.824;2022-10-16T06:59:21;101177.13;;;12.47;100.00
61119;BME280;51448;51.660;5.824;2022-10-16T07:01:49;101176.13;;;12.52;100.00
61119;BME280;51448;51.660;5.824;2022-10-16T07:04:16;101185.66;;;12.56;100.00
61119;BME280;51448;51.660;5.824;2022-10-16T07:06:46;101191.66;;;12.61;100.00
61119;BME280;51448;51.660;5.824;2022-10-16T07:09:14;101192.44;;;12.64;100.00
61119;BME280;51448;51.660;5.824;2022-10-16T07:11:41;101196.75;;;12.67;100.00
61119;BME280;51448;51.660;5.824;2022-10-16T07:14:20;101206.25;;;12.73;100.00
61119;BME280;51448;51.660;5.824;2022-10-16T07:16:48;101208.81;;;12.76;100.00
61119;BME280;51448;51.660;5.824;2022-10-16T07:19:16;101210.38;;;12.81;100.00
61119;BME280;51448;51.660;5.824;2022-10-16T07:21:44;101214.66;;;12.85;100.00
61119;BME280;51448;51.660;5.824;2022-10-16T07:24:14;101218.03;;;12.91;100.00
61119;BME280;51448;51.660;5.824;2022-10-16T07:26:45;101231.06;;;12.95;100.00
61119;BME280;51448;51.660;5.824;2022-10-16T07:29:16;101228.22;;;13.01;100.00
61119;BME280;51448;51.660;5.824;2022-10-16T07:31:46;101231.66;;;13.05;100.00
61119;BME280;51448;51.660;5.824;2022-10-16T07:34:16;101236.78;;;13.09;100.00
61119;BME280;51448;51.660;5.824;2022-10-16T07:36:48;101240.16;;;13.15;100.00
61119;BME280;51448;51.660;5.824;2022-10-16T07:39:17;101243.59;;;13.17;100.00
61119;BME280;51448;51.660;5.824;2022-10-16T07:41:45;101239.94;;;13.21;100.00
61119;BME280;51448;51.660;5.824;2022-10-16T07:44:12;101253.88;;;13.24;100.00
61119;BME280;51448;51.660;5.824;2022-10-16T07:46:39;101248.53;;;13.27;100.00
61119;BME280;51448;51.660;5.824;2022-10-16T07:49:08;101262.47;;;13.33;100.00
61119;BME280;51448;51.660;5.824;2022-10-16T07:51:35;101266.72;;;13.37;100.00
61119;BME280;51448;51.660;5.824;2022-10-16T07:54:03;101269.28;;;13.40;100.00
61119;BME280;51448;51.660;5.824;2022-10-16T07:56:31;101271.78;;;13.44;100.00
61119;BME280;51448;51.660;5.824;2022-10-16T07:58:59;101268.13;;;13.48;100.00
61119;BME280;51448;51.660;5.824;2022-10-16T08:01:26;101276.69;;;13.55;100.00
61119;BME280;51448;51.660;5.824;2022-10-16T08:03:54;101280.91;;;13.61;100.00
61119;BME280;51448;51.660;5.824;2022-10-16T08:06:22;101276.28;;;13.67;100.00
61119;BME280;51448;51.660;5.824;2022-10-16T08:08:55;101277.00;;;13.73;100.00
61119;BME280;51448;51.660;5.824;2022-10-16T08:11:23;101281.22;;;13.78;100.00
61119;BME280;51448;51.660;5.824;2022-10-16T08:13:50;101295.09;;;13.85;100.00
61119;BME280;51448;51.660;5.824;2022-10-16T08:16:18;101296.66;;;13.91;100.00
61119;BME280;51448;51.660;5.824;2022-10-16T08:18:45;101299.16;;;13.95;100.00
61119;BME280;51448;51.660;5.824;2022-10-16T08:21:15;101297.09;;;14.03;100.00
61119;BME280;51448;51.660;5.824;2022-10-16T08:23:48;101304.81;;;14.09;100.00
61119;BME280;51448;51.660;5.824;2022-10-16T08:26:25;101302.84;;;14.15;100.00
61119;BME280;51448;51.660;5.824;2022-10-16T08:28:54;101312.38;;;14.20;100.00
61119;BME280;51448;51.660;5.824;2022-10-16T08:31:23;101317.44;;;14.26;100.00
61119;BME280;51448;51.660;5.824;2022-10-16T08:33:51;101316.31;;;14.34;100.00
61119;BME280;51448;51.660;5.824;2022-10-16T08:36:19;101323.94;;;14.41;100.00
61119;BME280;51448;51.660;5.824;2022-10-16T08:38:48;101330.63;;;14.52;100.00
61119;BME280;51448;51.660;5.824;2022-10-16T08:41:37;101326.75;;;14.62;100.00
61119;BME280;51448;51.660;5.824;2022-10-16T08:44:35;101331.78;;;14.69;100.00
61119;BME280;51448;51.660;5.824;2022-10-16T08:47:22;101341.16;;;14.78;100.00
61119;BME280;51448;51.660;5.824;2022-10-16T08:49:58;101345.38;;;14.84;100.00
61119;BME280;51448;51.660;5.824;2022-10-16T08:52:31;101353.84;;;14.94;100.00
61119;BME280;51448;51.660;5.824;2022-10-16T08:55:03;101354.41;;;15.02;100.00
61119;BME280;51448;51.660;5.824;2022-10-16T08:57:32;101351.38;;;15.11;100.00
61119;BME280;51448;51.660;5.824;2022-10-16T09:00:05;101360.84;;;15.18;99.84
61119;BME280;51448;51.660;5.824;2022-10-16T09:03:03;101363.06;;;15.29;99.81
61119;BME280;51448;51.660;5.824;2022-10-16T09:09:28;101365.72;;;15.51;99.18
61119;BME280;51448;51.660;5.824;2022-10-16T09:14:53;101370.34;;;15.68;98.63
61119;BME280;51448;51.660;5.824;2022-10-16T09:17:53;101376.03;;;15.81;98.31
61119;BME280;51448;51.660;5.824;2022-10-16T09:21:01;101378.13;;;15.95;98.52
61119;BME280;51448;51.660;5.824;2022-10-16T09:23:37;101385.50;;;16.08;98.23
61119;BME280;51448;51.660;5.824;2022-10-16T09:26:06;101393.25;;;16.13;96.83
61119;BME280;51448;51.660;5.824;2022-10-16T09:28:39;101395.13;;;16.11;96.22
61119;BME280;51448;51.660;5.824;2022-10-16T09:31:19;101392.53;;;16.09;96.01
61119;BME280;51448;51.660;5.824;2022-10-16T09:33:53;101390.66;;;16.12;96.02
61119;BME280;51448;51.660;5.824;2022-10-16T09:36:26;101399.97;;;16.22;96.25
61119;BME280;51448;51.660;5.824;2022-10-16T09:39:07;101395.19;;;16.30;95.64
61119;BME280;51448;51.660;5.824;2022-10-16T09:41:43;101401.97;;;16.37;95.20
61119;BME280;51448;51.660;5.824;2022-10-16T09:44:24;101404.34;;;16.43;94.99
61119;BME280;51448;51.660;5.824;2022-10-16T09:47:03;101397.94;;;16.49;93.25
61119;BME280;51448;51.660;5.824;2022-10-16T09:49:57;101391.63;;;16.52;93.52
61119;BME280;51448;51.660;5.824;2022-10-16T09:52:32;101401.00;;;16.59;93.65
61119;BME280;51448;51.660;5.824;2022-10-16T09:55:02;101405.13;;;16.66;92.81
61119;BME280;51448;51.660;5.824;2022-10-16T09:57:51;101399.34;;;16.77;92.54
61119;BME280;51448;51.660;5.824;2022-10-16T10:00:20;101401.69;;;16.84;92.53
61119;BME280;51448;51.660;5.824;2022-10-16T10:02:51;101403.91;;;16.94;92.33
61119;BME280;51448;51.660;5.824;2022-10-16T10:05:27;101412.41;;;17.02;91.46
61119;BME280;51448;51.660;5.824;2022-10-16T10:07:58;101413.78;;;17.11;90.53
61119;BME280;51448;51.660;5.824;2022-10-16T10:10:28;101418.09;;;17.13;91.91
61119;BME280;51448;51.660;5.824;2022-10-16T10:12:57;101420.41;;;17.21;91.10
61119;BME280;51448;51.660;5.824;2022-10-16T10:15:32;101419.19;;;17.28;90.43
61119;BME280;51448;51.660;5.824;2022-10-16T10:18:01;101410.97;;;17.33;89.14
61119;BME280;51448;51.660;5.824;2022-10-16T10:20:35;101410.84;;;17.36;88.97
61119;BME280;51448;51.660;5.824;2022-10-16T10:23:23;101422.09;;;17.41;88.37
61119;BME280;51448;51.660;5.824;2022-10-16T10:25:59;101425.44;;;17.46;88.15
61119;BME280;51448;51.660;5.824;2022-10-16T10:31:38;101428.72;;;17.51;88.16
61119;BME280;51448;51.660;5.824;2022-10-16T10:43:27;101445.97;;;17.61;85.20
61119;BME280;51448;51.660;5.824;2022-10-16T10:46:09;101448.13;;;17.53;85.07
61119;BME280;51448;51.660;5.824;2022-10-16T10:49:08;101442.09;;;17.49;85.53
61119;BME280;51448;51.660;5.824;2022-10-16T10:55:23;101450.00;;;17.51;84.06
61119;BME280;51448;51.660;5.824;2022-10-16T11:01:18;101436.03;;;17.65;83.96
61119;BME280;51448;51.660;5.824;2022-10-16T11:07:38;101446.59;;;17.85;83.92
61119;BME280;51448;51.660;5.824;2022-10-16T11:13:36;101454.84;;;17.98;82.07
61119;BME280;51448;51.660;5.824;2022-10-16T11:16:21;101453.75;;;18.02;81.45
61119;BME280;51448;51.660;5.824;2022-10-16T11:21:56;101456.38;;;18.21;82.13
61119;BME280;51448;51.660;5.824;2022-10-16T11:24:39;101457.66;;;18.32;82.06
61119;BME280;51448;51.660;5.824;2022-10-16T11:27:21;101458.03;;;18.41;79.45
61119;BME280;51448;51.660;5.824;2022-10-16T11:29:59;101463.13;;;18.46;78.81
61119;BME280;51448;51.660;5.824;2022-10-16T11:32:39;101461.94;;;18.52;78.61
61119;BME280;51448;51.660;5.824;2022-10-16T11:35:24;101455.94;;;18.48;78.63
61119;BME280;51448;51.660;5.824;2022-10-16T11:38:02;101454.25;;;18.45;78.45
61119;BME280;51448;51.660;5.824;2022-10-16T11:40:41;101455.28;;;18.43;77.62
61119;BME280;51448;51.660;5.824;2022-10-16T11:43:26;101459.03;;;18.39;77.13
61119;BME280;51448;51.660;5.824;2022-10-16T11:46:05;101463.81;;;18.32;78.01
61119;BME280;51448;51.660;5.824;2022-10-16T11:48:49;101470.47;;;18.23;76.77
61119;BME280;51448;51.660;5.824;2022-10-16T11:57:02;101473.28;;;18.03;77.44
61119;BME280;51448;51.660;5.824;2022-10-16T12:05:35;101480.91;;;17.92;77.16
61119;BME280;51448;51.660;5.824;2022-10-16T12:08:14;101482.00;;;17.87;76.94
61119;BME280;51448;51.660;5.824;2022-10-16T12:10:46;101479.09;;;17.92;76.23
61119;BME280;51448;51.660;5.824;2022-10-16T12:13:36;101475.66;;;17.90;77.71
61119;BME280;51448;51.660;5.824;2022-10-16T12:18:42;101474.50;;;17.96;77.79
61119;BME280;51448;51.660;5.824;2022-10-16T12:21:12;101469.03;;;17.99;77.38
61119;BME280;51448;51.660;5.824;2022-10-16T12:23:54;101470.69;;;18.01;77.28
61119;BME280;51448;51.660;5.824;2022-10-16T12:26:32;101487.44;;;18.03;78.08
61119;BME280;51448;51.660;5.824;2022-10-16T12:29:40;101491.66;;;18.07;78.46
61119;BME280;51448;51.660;5.824;2022-10-16T12:32:33;101500.28;;;18.13;78.48
61119;BME280;51448;51.660;5.824;2022-10-16T12:35:21;101487.75;;;18.15;78.34
61119;BME280;51448;51.660;5.824;2022-10-16T12:37:52;101485.09;;;18.15;78.15
61119;BME280;51448;51.660;5.824;2022-10-16T12:40:25;101496.47;;;18.18;78.44
61119;BME280;51448;51.660;5.824;2022-10-16T12:42:57;101483.69;;;18.25;78.02
61119;BME280;51448;51.660;5.824;2022-10-16T12:45:34;101487.47;;;18.38;77.68
61119;BME280;51448;51.660;5.824;2022-10-16T12:48:17;101491.22;;;18.52;76.59
61119;BME280;51448;51.660;5.824;2022-10-16T12:50:46;101487.41;;;18.57;76.68
61119;BME280;51448;51.660;5.824;2022-10-16T12:53:25;101480.97;;;18.61;76.01
61119;BME280;51448;51.660;5.824;2022-10-16T12:56:21;101485.59;;;18.58;75.64
61119;BME280;51448;51.660;5.824;2022-10-16T13:02:00;101484.75;;;18.75;76.00
61119;BME280;51448;51.660;5.824;2022-10-16T13:07:56;101487.00;;;19.00;75.85
61119;BME280;51448;51.660;5.824;2022-10-16T13:10:40;101483.69;;;19.12;75.38
61119;BME280;51448;51.660;5.824;2022-10-16T13:16:40;101474.06;;;19.09;75.12
61119;BME280;51448;51.660;5.824;2022-10-16T13:28:01;101494.34;;;19.12;74.53
61119;BME280;51448;51.660;5.824;2022-10-16T13:30:43;101493.56;;;19.10;74.04
61119;BME280;51448;51.660;5.824;2022-10-16T13:33:23;101492.88;;;19.06;74.10
61119;BME280;51448;51.660;5.824;2022-10-16T13:35:59;101493.13;;;19.02;74.40
61119;BME280;51448;51.660;5.824;2022-10-16T13:38:31;101494.03;;;19.01;74.15
61119;BME280;51448;51.660;5.824;2022-10-16T13:41:14;101493.44;;;18.96;74.39
61119;BME280;51448;51.660;5.824;2022-10-16T13:46:17;101487.47;;;18.90;74.45
61119;BME280;51448;51.660;5.824;2022-10-16T13:49:11;101506.06;;;18.92;74.60
61119;BME280;51448;51.660;5.824;2022-10-16T13:51:41;101504.34;;;18.91;74.83
61119;BME280;51448;51.660;5.824;2022-10-16T13:54:22;101507.88;;;18.92;75.13
61119;BME280;51448;51.660;5.824;2022-10-16T13:56:51;101506.13;;;18.90;74.96
61119;BME280;51448;51.660;5.824;2022-10-16T13:59:36;101505.34;;;18.88;74.86
61119;BME280;51448;51.660;5.824;2022-10-16T14:02:18;101504.50;;;18.88;74.87
61119;BME280;51448;51.660;5.824;2022-10-16T14:04:55;101512.66;;;18.85;75.18
61119;BME280;51448;51.660;5.824;2022-10-16T14:07:28;101519.78;;;18.84;75.04
61119;BME280;51448;51.660;5.824;2022-10-16T14:10:03;101510.94;;;18.84;75.00
61119;BME280;51448;51.660;5.824;2022-10-16T14:12:34;101515.41;;;18.83;75.03
61119;BME280;51448;51.660;5.824;2022-10-16T14:15:02;101506.44;;;18.84;75.09
61119;BME280;51448;51.660;5.824;2022-10-16T14:17:35;101503.66;;;18.87;75.07
61119;BME280;51448;51.660;5.824;2022-10-16T14:20:05;101506.13;;;18.90;75.48
61119;BME280;51448;51.660;5.824;2022-10-16T14:22:40;101509.50;;;18.94;75.59
61119;BME280;51448;51.660;5.824;2022-10-16T14:28:14;101510.22;;;18.98;74.73
61119;BME280;51448;51.660;5.824;2022-10-16T14:33:24;101504.25;;;18.93;74.54
61119;BME280;51448;51.660;5.824;2022-10-16T14:36:04;101501.75;;;18.89;74.59